sensor_id;sensor_type;location;lat;lon;timestamp;pressure;altitude;pressure_sealevel;temperature;humidity
14120;BME280;7138;49.246;9.100;2023-03-11T00:01:55;97604.81;;;4.28;80.38
14120;BME280;7138;49.246;9.100;2023-03-11T00:04:20;97620.13;;;4.25;79.88
14120;BME280;7138;49.246;9.100;2023-03-11T00:06:46;97629.41;;;4.10;74.98
14120;BME280;7138;49.246;9.100;2023-03-11T00:09:13;97623.44;;;4.09;74.85
14120;BME280;7138;49.246;9.100;2023-03-11T00:11:39;97634.59;;;4.22;75.10
14120;BME280;7138;49.246;9.100;2023-03-11T00:14:05;97639.78;;;4.34;76.04
14120;BME280;7138;49.246;9.100;2023-03-11T00:16:31;97658.53;;;4.31;76.25
14120;BME280;7138;49.246;9.100;2023-03-11T00:18:57;97658.50;;;4.27;76.84
14120;BME280;7138;49.246;9.100;2023-03-11T00:21:23;97661.16;;;4.37;77.35
14120;BME280;7138;49.246;9.100;2023-03-11T00:23:48;97644.91;;;4.35;77.01
14120;BME280;7138;49.246;9.100;2023-03-11T00:26:16;97657.53;;;4.11;78.48
14120;BME280;7138;49.246;9.100;2023-03-11T00:28:41;97650.72;;;4.10;78.73
14120;BME280;7138;49.246;9.100;2023-03-11T00:31:09;97648.97;;;4.08;78.44
14120;BME280;7138;49.246;9.100;2023-03-11T00:33:35;97655.59;;;3.81;78.34
14120;BME280;7138;49.246;9.100;2023-03-11T00:36:01;97644.38;;;3.64;78.40
14120;BME280;7138;49.246;9.100;2023-03-11T00:38:27;97696.94;;;3.44;78.25
14120;BME280;7138;49.246;9.100;2023-03-11T00:40:53;97690.25;;;3.54;79.73
14120;BME280;7138;49.246;9.100;2023-03-11T00:43:20;97685.94;;;3.48;77.34
14120;BME280;7138;49.246;9.100;2023-03-11T00:45:46;97716.41;;;3.35;75.72
14120;BME280;7138;49.246;9.100;2023-03-11T00:48:13;97696.81;;;3.30;74.48
14120;BME280;7138;49.246;9.100;2023-03-11T00:50:40;97717.84;;;3.11;73.13
14120;BME280;7138;49.246;9.100;2023-03-11T00:53:06;97716.94;;;3.08;73.30
14120;BME280;7138;49.246;9.100;2023-03-11T00:55:33;97708.16;;;2.86;72.59
14120;BME280;7138;49.246;9.100;2023-03-11T00:58:03;97731.94;;;2.84;73.41
14120;BME280;7138;49.246;9.100;2023-03-11T01:00:32;97705.59;;;2.86;73.36
14120;BME280;7138;49.246;9.100;2023-03-11T01:02:59;97714.97;;;2.87;74.43
14120;BME280;7138;49.246;9.100;2023-03-11T01:05:28;97709.88;;;2.87;73.05
14120;BME280;7138;49.246;9.100;2023-03-11T01:07:54;97716.59;;;2.79;73.08
14120;BME280;7138;49.246;9.100;2023-03-11T01:10:20;97712.38;;;2.84;72.75
14120;BME280;7138;49.246;9.100;2023-03-11T01:12:47;97710.78;;;2.92;73.00
14120;BME280;7138;49.246;9.100;2023-03-11T01:15:18;97725.16;;;2.84;73.60
14120;BME280;7138;49.246;9.100;2023-03-11T01:17:45;97708.22;;;2.91;74.18
14120;BME280;7138;49.246;9.100;2023-03-11T01:20:12;97728.56;;;2.86;72.98
14120;BME280;7138;49.246;9.100;2023-03-11T01:22:38;97730.41;;;2.96;73.33
14120;BME280;7138;49.246;9.100;2023-03-11T01:25:04;97715.09;;;2.95;74.00
14120;BME280;7138;49.246;9.100;2023-03-11T01:27:30;97732.06;;;2.93;73.73
14120;BME280;7138;49.246;9.100;2023-03-11T01:29:56;97723.63;;;2.97;74.70
14120;BME280;7138;49.246;9.100;2023-03-11T01:32:22;97721.06;;;2.98;74.55
14120;BME280;7138;49.246;9.100;2023-03-11T01:34:49;97742.44;;;3.03;75.25
14120;BME280;7138;49.246;9.100;2023-03-11T01:37:15;97738.16;;;3.01;75.39
14120;BME280;7138;49.246;9.100;2023-03-11T01:39:41;97744.94;;;3.00;75.90
14120;BME280;7138;49.246;9.100;2023-03-11T01:42:07;97737.16;;;2.91;76.29
14120;BME280;7138;49.246;9.100;2023-03-11T01:44:32;97744.75;;;2.85;77.02
14120;BME280;7138;49.246;9.100;2023-03-11T01:47:34;97726.06;;;2.89;77.26
14120;BME280;7138;49.246;9.100;2023-03-11T01:50:03;97723.56;;;2.92;77.73
14120;BME280;7138;49.246;9.100;2023-03-11T01:52:30;97723.50;;;2.89;77.58
14120;BME280;7138;49.246;9.100;2023-03-11T01:54:56;97720.03;;;2.83;76.56
14120;BME280;7138;49.246;9.100;2023-03-11T01:57:22;97728.31;;;2.66;77.72
14120;BME280;7138;49.246;9.100;2023-03-11T01:59:53;97735.16;;;2.69;77.40
14120;BME280;7138;49.246;9.100;2023-03-11T02:02:27;97745.13;;;2.55;77.59
14120;BME280;7138;49.246;9.100;2023-03-11T02:04:53;97751.09;;;2.56;77.92
14120;BME280;7138;49.246;9.100;2023-03-11T02:07:21;97729.34;;;2.24;76.68
14120;BME280;7138;49.246;9.100;2023-03-11T02:09:47;97746.72;;;2.46;76.85
14120;BME280;7138;49.246;9.100;2023-03-11T02:12:14;97758.72;;;2.53;77.36
14120;BME280;7138;49.246;9.100;2023-03-11T02:14:44;97764.81;;;2.61;77.32
14120;BME280;7138;49.246;9.100;2023-03-11T02:17:12;97763.84;;;2.54;77.13
14120;BME280;7138;49.246;9.100;2023-03-11T02:19:57;97778.25;;;2.51;77.24
14120;BME280;7138;49.246;9.100;2023-03-11T02:22:29;97780.94;;;2.58;77.78
14120;BME280;7138;49.246;9.100;2023-03-11T02:25:03;97782.56;;;2.56;77.92
14120;BME280;7138;49.246;9.100;2023-03-11T02:27:37;97773.34;;;2.63;78.73
14120;BME280;7138;49.246;9.100;2023-03-11T02:30:05;97764.94;;;2.71;78.09
14120;BME280;7138;49.246;9.100;2023-03-11T02:32:32;97765.81;;;2.72;79.27
14120;BME280;7138;49.246;9.100;2023-03-11T02:34:58;97771.81;;;2.75;78.90
14120;BME280;7138;49.246;9.100;2023-03-11T02:37:24;97762.53;;;2.79;78.93
14120;BME280;7138;49.246;9.100;2023-03-11T02:39:53;97747.84;;;2.66;78.74
14120;BME280;7138;49.246;9.100;2023-03-11T02:42:24;97750.50;;;2.70;78.57
14120;BME280;7138;49.246;9.100;2023-03-11T02:44:59;97740.41;;;2.80;78.25
14120;BME280;7138;49.246;9.100;2023-03-11T02:47:26;97748.22;;;2.90;79.47
14120;BME280;7138;49.246;9.100;2023-03-11T02:49:55;97754.97;;;2.87;77.97
14120;BME280;7138;49.246;9.100;2023-03-11T02:52:22;97761.78;;;2.89;78.49
14120;BME280;7138;49.246;9.100;2023-03-11T02:54:49;97764.44;;;2.94;78.28
14120;BME280;7138;49.246;9.100;2023-03-11T02:57:15;97765.22;;;2.90;78.58
14120;BME280;7138;49.246;9.100;2023-03-11T02:59:41;97767.00;;;2.95;78.60
14120;BME280;7138;49.246;9.100;2023-03-11T03:02:08;97764.50;;;3.01;78.53
14120;BME280;7138;49.246;9.100;2023-03-11T03:04:34;97769.69;;;3.06;78.15
14120;BME280;7138;49.246;9.100;2023-03-11T03:06:59;97782.50;;;3.10;77.84
14120;BME280;7138;49.246;9.100;2023-03-11T03:09:25;97776.50;;;3.05;77.40
14120;BME280;7138;49.246;9.100;2023-03-11T03:11:51;97787.50;;;3.01;77.49
14120;BME280;7138;49.246;9.100;2023-03-11T03:14:17;97786.78;;;3.10;78.42
14120;BME280;7138;49.246;9.100;2023-03-11T03:16:43;97785.94;;;3.09;77.86
14120;BME280;7138;49.246;9.100;2023-03-11T03:19:10;97779.13;;;3.11;77.90
14120;BME280;7138;49.246;9.100;2023-03-11T03:21:36;97781.72;;;3.14;77.14
14120;BME280;7138;49.246;9.100;2023-03-11T03:24:02;97780.91;;;3.15;77.25
14120;BME280;7138;49.246;9.100;2023-03-11T03:26:28;97791.94;;;3.14;76.37
14120;BME280;7138;49.246;9.100;2023-03-11T03:28:54;97791.06;;;3.12;76.83
14120;BME280;7138;49.246;9.100;2023-03-11T03:31:20;97803.63;;;2.97;76.66
14120;BME280;7138;49.246;9.100;2023-03-11T03:33:45;97810.41;;;2.97;77.62
14120;BME280;7138;49.246;9.100;2023-03-11T03:36:14;97802.94;;;3.09;76.90
14120;BME280;7138;49.246;9.100;2023-03-11T03:38:41;97808.78;;;3.00;77.63
14120;BME280;7138;49.246;9.100;2023-03-11T03:41:07;97810.50;;;3.03;76.98
14120;BME280;7138;49.246;9.100;2023-03-11T03:43:33;97807.13;;;3.04;77.86
14120;BME280;7138;49.246;9.100;2023-03-11T03:46:01;97814.78;;;3.05;77.99
14120;BME280;7138;49.246;9.100;2023-03-11T03:48:29;97813.75;;;2.91;77.19
14120;BME280;7138;49.246;9.100;2023-03-11T03:50:56;97829.06;;;2.93;77.22
14120;BME280;7138;49.246;9.100;2023-03-11T03:53:23;97826.38;;;2.84;77.39
14120;BME280;7138;49.246;9.100;2023-03-11T03:55:49;97829.06;;;2.91;77.38
14120;BME280;7138;49.246;9.100;2023-03-11T03:58:15;97831.56;;;2.90;77.19
14120;BME280;7138;49.246;9.100;2023-03-11T04:00:41;97828.22;;;2.92;77.73
14120;BME280;7138;49.246;9.100;2023-03-11T04:03:07;97842.56;;;2.84;76.33
14120;BME280;7138;49.246;9.100;2023-03-11T04:05:33;97836.72;;;2.91;77.24
14120;BME280;7138;49.246;9.100;2023-03-11T04:07:58;97840.97;;;2.92;77.80
14120;BME280;7138;49.246;9.100;2023-03-11T04:10:26;97841.00;;;2.95;78.02
14120;BME280;7138;49.246;9.100;2023-03-11T04:12:52;97850.34;;;2.93;77.31
14120;BME280;7138;49.246;9.100;2023-03-11T04:15:18;97845.09;;;2.83;77.25
14120;BME280;7138;49.246;9.100;2023-03-11T04:17:44;97841.69;;;2.82;77.53
14120;BME280;7138;49.246;9.100;2023-03-11T04:20:11;97842.31;;;2.67;76.94
14120;BME280;7138;49.246;9.100;2023-03-11T04:22:37;97845.59;;;2.60;77.56
14120;BME280;7138;49.246;9.100;2023-03-11T04:25:03;97847.13;;;2.52;78.12
14120;BME280;7138;49.246;9.100;2023-03-11T04:27:30;97842.03;;;2.52;78.01
14120;BME280;7138;49.246;9.100;2023-03-11T04:29:56;97841.25;;;2.55;78.33
14120;BME280;7138;49.246;9.100;2023-03-11T04:32:22;97853.00;;;2.47;78.12
14120;BME280;7138;49.246;9.100;2023-03-11T04:34:48;97851.16;;;2.38;78.57
14120;BME280;7138;49.246;9.100;2023-03-11T04:37:14;97854.63;;;2.43;78.25
14120;BME280;7138;49.246;9.100;2023-03-11T04:39:39;97866.53;;;2.43;78.99
14120;BME280;7138;49.246;9.100;2023-03-11T04:42:05;97864.88;;;2.45;78.32
14120;BME280;7138;49.246;9.100;2023-03-11T04:44:34;97874.25;;;2.46;78.54
14120;BME280;7138;49.246;9.100;2023-03-11T04:47:00;97879.31;;;2.43;78.81
14120;BME280;7138;49.246;9.100;2023-03-11T04:49:26;97871.75;;;2.49;78.13
14120;BME280;7138;49.246;9.100;2023-03-11T04:51:52;97869.97;;;2.45;79.00
14120;BME280;7138;49.246;9.100;2023-03-11T04:54:17;97860.69;;;2.50;78.10
14120;BME280;7138;49.246;9.100;2023-03-11T04:56:43;97865.59;;;2.38;78.70
14120;BME280;7138;49.246;9.100;2023-03-11T04:59:09;97858.75;;;2.35;79.65
14120;BME280;7138;49.246;9.100;2023-03-11T05:01:36;97862.13;;;2.34;79.01
14120;BME280;7138;49.246;9.100;2023-03-11T05:04:02;97865.63;;;2.41;78.32
14120;BME280;7138;49.246;9.100;2023-03-11T05:06:28;97863.03;;;2.36;78.78
14120;BME280;7138;49.246;9.100;2023-03-11T05:08:54;97874.97;;;2.40;79.81
14120;BME280;7138;49.246;9.100;2023-03-11T05:11:20;97884.34;;;2.41;79.79
14120;BME280;7138;49.246;9.100;2023-03-11T05:13:46;97880.19;;;2.45;79.35
14120;BME280;7138;49.246;9.100;2023-03-11T05:16:11;97887.78;;;2.43;80.40
14120;BME280;7138;49.246;9.100;2023-03-11T05:18:39;97887.66;;;2.36;80.19
14120;BME280;7138;49.246;9.100;2023-03-11T05:21:05;97890.31;;;2.42;80.89
14120;BME280;7138;49.246;9.100;2023-03-11T05:23:30;97883.53;;;2.44;80.13
14120;BME280;7138;49.246;9.100;2023-03-11T05:25:56;97886.09;;;2.44;80.28
14120;BME280;7138;49.246;9.100;2023-03-11T05:28:22;97889.41;;;2.38;79.94
14120;BME280;7138;49.246;9.100;2023-03-11T05:30:48;97897.75;;;2.31;80.15
14120;BME280;7138;49.246;9.100;2023-03-11T05:33:15;97890.16;;;2.34;80.85
14120;BME280;7138;49.246;9.100;2023-03-11T05:35:42;97893.53;;;2.32;80.88
14120;BME280;7138;49.246;9.100;2023-03-11T05:38:08;97900.16;;;2.22;80.61
14120;BME280;7138;49.246;9.100;2023-03-11T05:40:34;97896.75;;;2.22;80.17
14120;BME280;7138;49.246;9.100;2023-03-11T05:42:59;97894.69;;;2.04;80.63
14120;BME280;7138;49.246;9.100;2023-03-11T05:45:25;97904.50;;;1.84;82.09
14120;BME280;7138;49.246;9.100;2023-03-11T05:47:51;97898.47;;;1.79;81.89
14120;BME280;7138;49.246;9.100;2023-03-11T05:50:17;97899.31;;;1.80;81.86
14120;BME280;7138;49.246;9.100;2023-03-11T05:52:45;97906.75;;;1.71;82.20
14120;BME280;7138;49.246;9.100;2023-03-11T05:55:10;97894.00;;;1.69;82.80
14120;BME280;7138;49.246;9.100;2023-03-11T05:57:37;97905.72;;;1.61;83.66
14120;BME280;7138;49.246;9.100;2023-03-11T06:00:04;97897.25;;;1.62;83.43
14120;BME280;7138;49.246;9.100;2023-03-11T06:02:32;97902.34;;;1.62;83.84
14120;BME280;7138;49.246;9.100;2023-03-11T06:04:57;97901.53;;;1.64;84.31
14120;BME280;7138;49.246;9.100;2023-03-11T06:07:23;97913.19;;;1.53;84.21
14120;BME280;7138;49.246;9.100;2023-03-11T06:09:50;97905.59;;;1.55;84.66
14120;BME280;7138;49.246;9.100;2023-03-11T06:12:16;97906.47;;;1.57;85.01
14120;BME280;7138;49.246;9.100;2023-03-11T06:14:42;97917.56;;;1.59;83.62
14120;BME280;7138;49.246;9.100;2023-03-11T06:17:08;97914.13;;;1.58;83.88
14120;BME280;7138;49.246;9.100;2023-03-11T06:19:34;97911.84;;;1.69;83.87
14120;BME280;7138;49.246;9.100;2023-03-11T06:22:01;97911.91;;;1.74;83.25
14120;BME280;7138;49.246;9.100;2023-03-11T06:24:27;97908.47;;;1.70;84.30
14120;BME280;7138;49.246;9.100;2023-03-11T06:26:54;97906.19;;;1.82;84.10
14120;BME280;7138;49.246;9.100;2023-03-11T06:29:20;97913.91;;;1.87;84.27
14120;BME280;7138;49.246;9.100;2023-03-11T06:31:48;97914.13;;;1.97;84.77
14120;BME280;7138;49.246;9.100;2023-03-11T06:34:14;97918.63;;;2.10;83.40
14120;BME280;7138;49.246;9.100;2023-03-11T06:36:40;97926.28;;;2.10;83.73
14120;BME280;7138;49.246;9.100;2023-03-11T06:39:06;97932.53;;;2.26;83.54
14120;BME280;7138;49.246;9.100;2023-03-11T06:41:32;97926.03;;;2.42;83.27
14120;BME280;7138;49.246;9.100;2023-03-11T06:44:00;97936.50;;;2.57;83.55
14120;BME280;7138;49.246;9.100;2023-03-11T06:46:26;97946.13;;;2.71;83.10
14120;BME280;7138;49.246;9.100;2023-03-11T06:48:51;97943.78;;;2.84;82.71
14120;BME280;7138;49.246;9.100;2023-03-11T06:51:19;97952.41;;;2.90;81.99
14120;BME280;7138;49.246;9.100;2023-03-11T06:53:48;97952.56;;;2.99;81.71
14120;BME280;7138;49.246;9.100;2023-03-11T06:56:14;97947.59;;;3.07;80.84
14120;BME280;7138;49.246;9.100;2023-03-11T06:58:41;97959.50;;;3.06;80.18
14120;BME280;7138;49.246;9.100;2023-03-11T07:01:12;97959.63;;;3.14;80.94
14120;BME280;7138;49.246;9.100;2023-03-11T07:03:40;97978.31;;;3.11;80.74
14120;BME280;7138;49.246;9.100;2023-03-11T07:06:10;97985.09;;;3.11;79.84
14120;BME280;7138;49.246;9.100;2023-03-11T07:08:36;97979.22;;;3.15;81.05
14120;BME280;7138;49.246;9.100;2023-03-11T07:11:05;97974.22;;;3.22;79.97
14120;BME280;7138;49.246;9.100;2023-03-11T07:13:31;97974.41;;;3.35;81.00
14120;BME280;7138;49.246;9.100;2023-03-11T07:16:03;97986.34;;;3.34;79.73
14120;BME280;7138;49.246;9.100;2023-03-11T07:18:31;97983.75;;;3.33;79.88
14120;BME280;7138;49.246;9.100;2023-03-11T07:20:58;98004.16;;;3.29;79.35
14120;BME280;7138;49.246;9.100;2023-03-11T07:23:23;97998.31;;;3.37;78.74
14120;BME280;7138;49.246;9.100;2023-03-11T07:25:49;97992.34;;;3.36;80.33
14120;BME280;7138;49.246;9.100;2023-03-11T07:28:17;97991.63;;;3.45;79.77
14120;BME280;7138;49.246;9.100;2023-03-11T07:30:43;97993.50;;;3.56;80.32
14120;BME280;7138;49.246;9.100;2023-03-11T07:33:11;98000.47;;;3.66;79.28
14120;BME280;7138;49.246;9.100;2023-03-11T07:35:38;98006.69;;;3.82;79.41
14120;BME280;7138;49.246;9.100;2023-03-11T07:38:04;98007.53;;;3.82;78.18
14120;BME280;7138;49.246;9.100;2023-03-11T07:40:30;98015.16;;;3.79;77.90
14120;BME280;7138;49.246;9.100;2023-03-11T07:42:56;98015.22;;;3.82;77.22
14120;BME280;7138;49.246;9.100;2023-03-11T07:45:22;98012.91;;;4.02;77.68
14120;BME280;7138;49.246;9.100;2023-03-11T07:47:48;98014.09;;;4.25;78.09
14120;BME280;7138;49.246;9.100;2023-03-11T07:50:14;98010.00;;;4.41;78.00
14120;BME280;7138;49.246;9.100;2023-03-11T07:52:43;98023.84;;;4.55;77.54
14120;BME280;7138;49.246;9.100;2023-03-11T07:55:09;98026.69;;;4.81;78.03
14120;BME280;7138;49.246;9.100;2023-03-11T07:57:35;98036.88;;;4.75;76.31
14120;BME280;7138;49.246;9.100;2023-03-11T08:00:01;98031.81;;;4.81;76.39
14120;BME280;7138;49.246;9.100;2023-03-11T08:02:27;98038.63;;;4.79;75.77
14120;BME280;7138;49.246;9.100;2023-03-11T08:04:54;98044.63;;;4.79;74.98
14120;BME280;7138;49.246;9.100;2023-03-11T08:07:21;98038.75;;;4.91;75.26
14120;BME280;7138;49.246;9.100;2023-03-11T08:09:48;98039.81;;;5.10;76.35
14120;BME280;7138;49.246;9.100;2023-03-11T08:12:14;98042.41;;;5.13;75.04
14120;BME280;7138;49.246;9.100;2023-03-11T08:14:40;98047.53;;;5.14;74.02
14120;BME280;7138;49.246;9.100;2023-03-11T08:17:08;98040.69;;;5.10;73.53
14120;BME280;7138;49.246;9.100;2023-03-11T08:19:34;98057.00;;;5.20;73.01
14120;BME280;7138;49.246;9.100;2023-03-11T08:22:01;98058.53;;;5.06;72.83
14120;BME280;7138;49.246;9.100;2023-03-11T08:24:27;98066.28;;;5.10;73.70
14120;BME280;7138;49.246;9.100;2023-03-11T08:26:55;98070.00;;;5.39;73.85
14120;BME280;7138;49.246;9.100;2023-03-11T08:29:21;98082.09;;;5.53;73.01
14120;BME280;7138;49.246;9.100;2023-03-11T08:31:47;98073.59;;;5.60;75.01
14120;BME280;7138;49.246;9.100;2023-03-11T08:34:14;98066.97;;;5.83;71.80
14120;BME280;7138;49.246;9.100;2023-03-11T08:36:40;98065.47;;;6.12;72.97
14120;BME280;7138;49.246;9.100;2023-03-11T08:39:06;98075.06;;;6.40;72.85
14120;BME280;7138;49.246;9.100;2023-03-11T08:41:32;98084.59;;;6.63;73.56
14120;BME280;7138;49.246;9.100;2023-03-11T08:43:59;98087.28;;;6.84;72.94
14120;BME280;7138;49.246;9.100;2023-03-11T08:46:28;98090.69;;;6.83;70.67
14120;BME280;7138;49.246;9.100;2023-03-11T08:48:56;98086.50;;;7.07;71.34
14120;BME280;7138;49.246;9.100;2023-03-11T08:51:24;98095.97;;;7.30;71.28
14120;BME280;7138;49.246;9.100;2023-03-11T08:53:51;98092.50;;;7.22;68.83
14120;BME280;7138;49.246;9.100;2023-03-11T08:56:18;98101.13;;;7.34;69.67
14120;BME280;7138;49.246;9.100;2023-03-11T08:58:44;98096.81;;;7.26;67.32
14120;BME280;7138;49.246;9.100;2023-03-11T09:01:12;98098.50;;;7.18;67.86
14120;BME280;7138;49.246;9.100;2023-03-11T09:03:38;98096.78;;;7.07;67.86
14120;BME280;7138;49.246;9.100;2023-03-11T09:06:07;98095.09;;;7.20;66.89
14120;BME280;7138;49.246;9.100;2023-03-11T09:08:34;98095.97;;;7.28;67.20
14120;BME280;7138;49.246;9.100;2023-03-11T09:11:00;98094.25;;;7.33;66.42
14120;BME280;7138;49.246;9.100;2023-03-11T09:13:26;98101.97;;;7.33;66.55
14120;BME280;7138;49.246;9.100;2023-03-11T09:15:53;98119.03;;;7.07;64.46
14120;BME280;7138;49.246;9.100;2023-03-11T09:18:20;98113.91;;;7.13;66.41
14120;BME280;7138;49.246;9.100;2023-03-11T09:20:47;98116.44;;;6.98;65.89
14120;BME280;7138;49.246;9.100;2023-03-11T09:23:15;98122.44;;;7.01;67.10
14120;BME280;7138;49.246;9.100;2023-03-11T09:25:41;98117.31;;;7.03;66.77
14120;BME280;7138;49.246;9.100;2023-03-11T09:28:07;98127.50;;;6.82;66.07
14120;BME280;7138;49.246;9.100;2023-03-11T09:30:33;98133.31;;;6.49;65.91
14120;BME280;7138;49.246;9.100;2023-03-11T09:33:00;98132.31;;;6.27;66.28
14120;BME280;7138;49.246;9.100;2023-03-11T09:35:27;98135.03;;;6.47;68.54
14120;BME280;7138;49.246;9.100;2023-03-11T09:37:53;98122.25;;;6.59;67.65
14120;BME280;7138;49.246;9.100;2023-03-11T09:40:21;98123.16;;;6.73;68.49
14120;BME280;7138;49.246;9.100;2023-03-11T09:43:04;98109.59;;;7.01;69.17
14120;BME280;7138;49.246;9.100;2023-03-11T09:45:38;98115.69;;;7.32;69.13
14120;BME280;7138;49.246;9.100;2023-03-11T09:48:20;98115.75;;;7.59;65.71
14120;BME280;7138;49.246;9.100;2023-03-11T09:51:01;98098.63;;;7.99;68.17
14120;BME280;7138;49.246;9.100;2023-03-11T09:53:37;98089.16;;;8.39;67.47
14120;BME280;7138;49.246;9.100;2023-03-11T09:56:08;98091.63;;;8.74;64.89
14120;BME280;7138;49.246;9.100;2023-03-11T09:58:38;98093.25;;;9.04;66.09
14120;BME280;7138;49.246;9.100;2023-03-11T10:01:16;98094.84;;;9.27;65.12
14120;BME280;7138;49.246;9.100;2023-03-11T10:03:46;98104.22;;;9.45;64.06
14120;BME280;7138;49.246;9.100;2023-03-11T10:06:19;98102.47;;;9.43;62.93
14120;BME280;7138;49.246;9.100;2023-03-11T10:08:53;98101.69;;;9.36;63.51
14120;BME280;7138;49.246;9.100;2023-03-11T10:11:51;98107.72;;;9.32;64.05
14120;BME280;7138;49.246;9.100;2023-03-11T10:14:50;98103.38;;;9.37;61.86
14120;BME280;7138;49.246;9.100;2023-03-11T10:17:39;98103.47;;;9.23;60.83
14120;BME280;7138;49.246;9.100;2023-03-11T10:20:14;98099.19;;;9.21;61.46
14120;BME280;7138;49.246;9.100;2023-03-11T10:22:51;98094.88;;;9.18;60.28
14120;BME280;7138;49.246;9.100;2023-03-11T10:25:27;98096.69;;;9.01;62.16
14120;BME280;7138;49.246;9.100;2023-03-11T10:28:04;98113.16;;;8.58;60.24
14120;BME280;7138;49.246;9.100;2023-03-11T10:30:35;98091.72;;;8.33;61.89
14120;BME280;7138;49.246;9.100;2023-03-11T10:33:16;98109.75;;;8.44;63.67
14120;BME280;7138;49.246;9.100;2023-03-11T10:35:50;98105.47;;;8.41;62.88
14120;BME280;7138;49.246;9.100;2023-03-11T10:38:21;98102.03;;;8.47;63.67
14120;BME280;7138;49.246;9.100;2023-03-11T10:40:53;98112.31;;;8.50;62.40
14120;BME280;7138;49.246;9.100;2023-03-11T10:43:27;98112.34;;;8.35;61.41
14120;BME280;7138;49.246;9.100;2023-03-11T10:45:54;98108.91;;;8.19;60.83
14120;BME280;7138;49.246;9.100;2023-03-11T10:48:20;98125.22;;;8.10;61.67
14120;BME280;7138;49.246;9.100;2023-03-11T10:50:54;98115.78;;;8.32;62.31
14120;BME280;7138;49.246;9.100;2023-03-11T10:53:22;98112.28;;;8.54;62.64
14120;BME280;7138;49.246;9.100;2023-03-11T10:55:51;98107.03;;;8.91;63.05
14120;BME280;7138;49.246;9.100;2023-03-11T10:58:20;98104.44;;;8.98;61.57
14120;BME280;7138;49.246;9.100;2023-03-11T11:01:00;98113.06;;;8.88;58.50
14120;BME280;7138;49.246;9.100;2023-03-11T11:03:26;98113.09;;;8.84;61.29
14120;BME280;7138;49.246;9.100;2023-03-11T11:05:59;98119.09;;;8.90;59.49
14120;BME280;7138;49.246;9.100;2023-03-11T11:08:27;98129.44;;;8.78;59.64
14120;BME280;7138;49.246;9.100;2023-03-11T11:10:56;98116.63;;;8.16;57.83
14120;BME280;7138;49.246;9.100;2023-03-11T11:13:24;98138.94;;;8.09;58.71
14120;BME280;7138;49.246;9.100;2023-03-11T11:15:57;98144.94;;;7.78;58.57
14120;BME280;7138;49.246;9.100;2023-03-11T11:18:27;98138.06;;;7.80;59.74
14120;BME280;7138;49.246;9.100;2023-03-11T11:21:04;98137.22;;;7.75;61.42
14120;BME280;7138;49.246;9.100;2023-03-11T11:23:38;98135.50;;;7.85;60.85
14120;BME280;7138;49.246;9.100;2023-03-11T11:26:14;98132.91;;;7.94;59.76
14120;BME280;7138;49.246;9.100;2023-03-11T11:28:41;98125.19;;;8.03;60.37
14120;BME280;7138;49.246;9.100;2023-03-11T11:31:22;98108.06;;;8.20;61.25
14120;BME280;7138;49.246;9.100;2023-03-11T11:33:50;98117.50;;;8.30;58.23
14120;BME280;7138;49.246;9.100;2023-03-11T11:36:18;98117.47;;;8.27;56.87
14120;BME280;7138;49.246;9.100;2023-03-11T11:38:46;98099.44;;;8.47;58.32
14120;BME280;7138;49.246;9.100;2023-03-11T11:41:17;98105.41;;;8.67;57.06
14120;BME280;7138;49.246;9.100;2023-03-11T11:43:48;98100.19;;;8.85;58.56
14120;BME280;7138;49.246;9.100;2023-03-11T11:46:24;98107.16;;;8.54;56.63
14120;BME280;7138;49.246;9.100;2023-03-11T11:49:02;98116.63;;;8.20;56.11
14120;BME280;7138;49.246;9.100;2023-03-11T11:51:34;98125.22;;;8.07;57.15
14120;BME280;7138;49.246;9.100;2023-03-11T11:54:14;98124.34;;;8.07;56.87
14120;BME280;7138;49.246;9.100;2023-03-11T11:56:42;98114.91;;;8.15;57.30
14120;BME280;7138;49.246;9.100;2023-03-11T11:59:15;98108.03;;;8.23;57.88
14120;BME280;7138;49.246;9.100;2023-03-11T12:01:57;98102.03;;;8.30;59.06
14120;BME280;7138;49.246;9.100;2023-03-11T12:04:49;98084.81;;;8.52;58.79
14120;BME280;7138;49.246;9.100;2023-03-11T12:07:33;98095.16;;;8.47;56.07
14120;BME280;7138;49.246;9.100;2023-03-11T12:10:20;98084.81;;;8.55;54.60
14120;BME280;7138;49.246;9.100;2023-03-11T12:15:49;98083.81;;;8.98;59.05
14120;BME280;7138;49.246;9.100;2023-03-11T12:18:24;98071.63;;;9.29;59.97
14120;BME280;7138;49.246;9.100;2023-03-11T12:20:54;98074.06;;;9.50;57.45
14120;BME280;7138;49.246;9.100;2023-03-11T12:23:36;98073.84;;;9.79;58.51
14120;BME280;7138;49.246;9.100;2023-03-11T12:26:19;98083.38;;;9.75;55.91
14120;BME280;7138;49.246;9.100;2023-03-11T12:28:52;98093.91;;;9.42;54.88
14120;BME280;7138;49.246;9.100;2023-03-11T12:31:23;98099.09;;;9.36;54.59
14120;BME280;7138;49.246;9.100;2023-03-11T12:33:54;98094.00;;;9.22;55.31
14120;BME280;7138;49.246;9.100;2023-03-11T12:36:24;98094.84;;;9.29;57.34
14120;BME280;7138;49.246;9.100;2023-03-11T12:38:53;98100.81;;;9.39;56.82
14120;BME280;7138;49.246;9.100;2023-03-11T12:41:33;98105.00;;;9.52;56.14
14120;BME280;7138;49.246;9.100;2023-03-11T12:44:21;98099.91;;;9.43;56.83
14120;BME280;7138;49.246;9.100;2023-03-11T12:47:15;98104.25;;;9.38;54.86
14120;BME280;7138;49.246;9.100;2023-03-11T12:49:44;98098.28;;;9.26;56.99
14120;BME280;7138;49.246;9.100;2023-03-11T12:52:23;98093.13;;;9.25;56.05
14120;BME280;7138;49.246;9.100;2023-03-11T12:55:35;98100.00;;;9.26;54.78
14120;BME280;7138;49.246;9.100;2023-03-11T12:58:39;98093.97;;;9.33;57.11
14120;BME280;7138;49.246;9.100;2023-03-11T13:01:45;98087.91;;;9.37;54.89
14120;BME280;7138;49.246;9.100;2023-03-11T13:04:45;98087.97;;;9.25;55.54
14120;BME280;7138;49.246;9.100;2023-03-11T13:07:41;98083.63;;;9.34;56.87
14120;BME280;7138;49.246;9.100;2023-03-11T13:10:16;98091.50;;;9.12;55.17
14120;BME280;7138;49.246;9.100;2023-03-11T13:12:44;98097.56;;;8.94;55.75
14120;BME280;7138;49.246;9.100;2023-03-11T13:15:36;98100.22;;;8.77;55.50
14120;BME280;7138;49.246;9.100;2023-03-11T13:18:16;98095.06;;;8.77;57.97
14120;BME280;7138;49.246;9.100;2023-03-11T13:20:45;98093.31;;;8.83;57.19
14120;BME280;7138;49.246;9.100;2023-03-11T13:23:27;98078.56;;;9.16;58.98
14120;BME280;7138;49.246;9.100;2023-03-11T13:26:21;98068.88;;;9.53;57.57
14120;BME280;7138;49.246;9.100;2023-03-11T13:32:20;98070.31;;;9.94;55.18
14120;BME280;7138;49.246;9.100;2023-03-11T13:35:00;98064.97;;;10.12;55.37
14120;BME280;7138;49.246;9.100;2023-03-11T13:37:43;98083.41;;;9.68;52.47
14120;BME280;7138;49.246;9.100;2023-03-11T13:40:31;98088.75;;;9.38;52.64
14120;BME280;7138;49.246;9.100;2023-03-11T13:43:02;98097.34;;;9.41;55.20